sensor_id;sensor_type;location;lat;lon;timestamp;P1;durP1;ratioP1;P2;durP2;ratioP2
52866;SDS011;38739;53.324;6.862;2022-09-12T00:00:31;9.75;;;8.77;;
52866;SDS011;38739;53.324;6.862;2022-09-12T00:02:56;17.83;;;9.55;;
52866;SDS011;38739;53.324;6.862;2022-09-12T00:05:23;10.20;;;9.05;;
52866;SDS011;38739;53.324;6.862;2022-09-12T00:07:50;12.85;;;10.30;;
52866;SDS011;38739;53.324;6.862;2022-09-12T00:10:16;10.35;;;9.25;;
52866;SDS011;38739;53.324;6.862;2022-09-12T00:12:42;10.35;;;9.35;;
52866;SDS011;38739;53.324;6.862;2022-09-12T00:15:09;11.07;;;9.50;;
52866;SDS011;38739;53.324;6.862;2022-09-12T00:17:36;11.35;;;9.40;;
52866;SDS011;38739;53.324;6.862;2022-09-12T00:20:03;11.23;;;9.85;;
52866;SDS011;38739;53.324;6.862;2022-09-12T00:22:31;10.63;;;9.63;;
52866;SDS011;38739;53.324;6.862;2022-09-12T00:24:56;10.80;;;9.68;;
52866;SDS011;38739;53.324;6.862;2022-09-12T00:27:22;12.10;;;10.80;;
52866;SDS011;38739;53.324;6.862;2022-09-12T00:29:48;12.15;;;10.70;;
52866;SDS011;38739;53.324;6.862;2022-09-12T00:32:14;11.98;;;10.77;;
52866;SDS011;38739;53.324;6.862;2022-09-12T00:34:39;12.18;;;10.98;;
52866;SDS011;38739;53.324;6.862;2022-09-12T00:37:05;11.85;;;10.60;;
52866;SDS011;38739;53.324;6.862;2022-09-12T00:39:31;11.57;;;10.48;;
52866;SDS011;38739;53.324;6.862;2022-09-12T00:41:57;13.32;;;11.25;;
52866;SDS011;38739;53.324;6.862;2022-09-12T00:49:26;12.63;;;11.43;;
52866;SDS011;38739;53.324;6.862;2022-09-12T00:52:06;13.15;;;11.75;;
52866;SDS011;38739;53.324;6.862;2022-09-12T00:54:36;14.00;;;11.55;;
52866;SDS011;38739;53.324;6.862;2022-09-12T00:59:40;13.13;;;11.73;;
52866;SDS011;38739;53.324;6.862;2022-09-12T01:02:11;13.70;;;12.05;;
52866;SDS011;38739;53.324;6.862;2022-09-12T01:04:37;13.90;;;12.23;;
52866;SDS011;38739;53.324;6.862;2022-09-12T01:07:05;14.43;;;12.48;;
52866;SDS011;38739;53.324;6.862;2022-09-12T01:09:32;13.65;;;12.23;;
52866;SDS011;38739;53.324;6.862;2022-09-12T01:12:00;14.38;;;12.50;;
52866;SDS011;38739;53.324;6.862;2022-09-12T01:14:27;18.42;;;13.27;;
52866;SDS011;38739;53.324;6.862;2022-09-12T01:16:54;14.63;;;13.13;;
52866;SDS011;38739;53.324;6.862;2022-09-12T01:27:32;15.65;;;14.05;;
52866;SDS011;38739;53.324;6.862;2022-09-12T01:30:17;15.15;;;13.65;;
52866;SDS011;38739;53.324;6.862;2022-09-12T01:41:20;17.00;;;13.82;;
52866;SDS011;38739;53.324;6.862;2022-09-12T01:43:56;15.52;;;13.93;;
52866;SDS011;38739;53.324;6.862;2022-09-12T01:47:19;17.13;;;15.30;;
52866;SDS011;38739;53.324;6.862;2022-09-12T01:49:37;15.75;;;14.15;;
52866;SDS011;38739;53.324;6.862;2022-09-12T01:52:21;18.35;;;15.43;;
52866;SDS011;38739;53.324;6.862;2022-09-12T01:54:54;16.23;;;14.65;;
52866;SDS011;38739;53.324;6.862;2022-09-12T01:57:42;19.17;;;15.90;;
52866;SDS011;38739;53.324;6.862;2022-09-12T02:00:24;19.67;;;16.40;;
52866;SDS011;38739;53.324;6.862;2022-09-12T02:05:32;19.20;;;17.08;;
52866;SDS011;38739;53.324;6.862;2022-09-12T02:08:08;22.60;;;16.83;;
52866;SDS011;38739;53.324;6.862;2022-09-12T02:13:43;18.65;;;16.75;;
52866;SDS011;38739;53.324;6.862;2022-09-12T02:16:24;20.40;;;17.73;;
52866;SDS011;38739;53.324;6.862;2022-09-12T02:19:08;23.52;;;17.67;;
52866;SDS011;38739;53.324;6.862;2022-09-12T02:21:41;18.52;;;16.42;;
52866;SDS011;38739;53.324;6.862;2022-09-12T02:24:13;21.10;;;17.58;;
52866;SDS011;38739;53.324;6.862;2022-09-12T02:26:48;20.92;;;17.40;;
52866;SDS011;38739;53.324;6.862;2022-09-12T02:29:18;20.70;;;17.58;;
52866;SDS011;38739;53.324;6.862;2022-09-12T02:39:45;20.45;;;18.35;;
52866;SDS011;38739;53.324;6.862;2022-09-12T02:42:11;21.02;;;18.50;;
52866;SDS011;38739;53.324;6.862;2022-09-12T02:44:37;21.67;;;19.45;;
52866;SDS011;38739;53.324;6.862;2022-09-12T02:47:07;20.30;;;18.13;;
52866;SDS011;38739;53.324;6.862;2022-09-12T02:49:38;21.35;;;19.15;;
52866;SDS011;38739;53.324;6.862;2022-09-12T02:52:04;21.35;;;18.67;;
52866;SDS011;38739;53.324;6.862;2022-09-12T02:54:30;24.17;;;19.83;;
52866;SDS011;38739;53.324;6.862;2022-09-12T02:56:57;26.15;;;22.20;;
52866;SDS011;38739;53.324;6.862;2022-09-12T02:59:22;26.20;;;22.55;;
52866;SDS011;38739;53.324;6.862;2022-09-12T03:07:37;34.67;;;26.75;;
52866;SDS011;38739;53.324;6.862;2022-09-12T03:13:06;30.75;;;24.02;;
52866;SDS011;38739;53.324;6.862;2022-09-12T03:15:39;30.52;;;24.63;;
52866;SDS011;38739;53.324;6.862;2022-09-12T03:18:17;30.38;;;23.63;;
52866;SDS011;38739;53.324;6.862;2022-09-12T03:21:21;25.65;;;21.50;;
52866;SDS011;38739;53.324;6.862;2022-09-12T03:29:33;28.23;;;21.90;;
52866;SDS011;38739;53.324;6.862;2022-09-12T03:32:00;23.73;;;21.15;;
52866;SDS011;38739;53.324;6.862;2022-09-12T03:34:26;24.58;;;21.63;;
52866;SDS011;38739;53.324;6.862;2022-09-12T03:36:53;25.88;;;21.90;;
52866;SDS011;38739;53.324;6.862;2022-09-12T03:39:19;26.70;;;23.02;;
52866;SDS011;38739;53.324;6.862;2022-09-12T03:41:48;27.20;;;22.75;;
52866;SDS011;38739;53.324;6.862;2022-09-12T03:44:14;26.30;;;22.17;;
52866;SDS011;38739;53.324;6.862;2022-09-12T03:46:40;27.33;;;23.65;;
52866;SDS011;38739;53.324;6.862;2022-09-12T03:49:06;25.15;;;22.23;;
52866;SDS011;38739;53.324;6.862;2022-09-12T03:51:32;31.25;;;22.70;;
52866;SDS011;38739;53.324;6.862;2022-09-12T03:53:57;28.15;;;24.08;;
52866;SDS011;38739;53.324;6.862;2022-09-12T03:56:23;31.27;;;23.85;;
52866;SDS011;38739;53.324;6.862;2022-09-12T03:58:49;29.15;;;24.33;;
52866;SDS011;38739;53.324;6.862;2022-09-12T04:01:15;26.83;;;23.63;;
52866;SDS011;38739;53.324;6.862;2022-09-12T04:03:43;27.50;;;23.65;;
52866;SDS011;38739;53.324;6.862;2022-09-12T04:06:11;30.38;;;24.92;;
52866;SDS011;38739;53.324;6.862;2022-09-12T04:08:40;33.85;;;25.48;;
52866;SDS011;38739;53.324;6.862;2022-09-12T04:11:09;31.98;;;26.10;;
52866;SDS011;38739;53.324;6.862;2022-09-12T04:13:36;28.23;;;24.08;;
52866;SDS011;38739;53.324;6.862;2022-09-12T04:16:03;32.05;;;25.40;;
52866;SDS011;38739;53.324;6.862;2022-09-12T04:18:29;32.60;;;26.42;;
52866;SDS011;38739;53.324;6.862;2022-09-12T04:20:55;34.58;;;27.52;;
52866;SDS011;38739;53.324;6.862;2022-09-12T04:23:21;35.40;;;28.25;;
52866;SDS011;38739;53.324;6.862;2022-09-12T04:25:54;35.92;;;28.00;;
52866;SDS011;38739;53.324;6.862;2022-09-12T04:28:21;34.45;;;27.92;;
52866;SDS011;38739;53.324;6.862;2022-09-12T04:30:47;38.75;;;29.15;;
52866;SDS011;38739;53.324;6.862;2022-09-12T04:33:13;33.70;;;27.05;;
52866;SDS011;38739;53.324;6.862;2022-09-12T04:35:39;37.85;;;29.20;;
52866;SDS011;38739;53.324;6.862;2022-09-12T04:38:05;39.08;;;29.67;;
52866;SDS011;38739;53.324;6.862;2022-09-12T04:40:32;38.17;;;28.88;;
52866;SDS011;38739;53.324;6.862;2022-09-12T04:42:58;40.40;;;30.40;;
52866;SDS011;38739;53.324;6.862;2022-09-12T04:45:23;39.63;;;29.58;;
52866;SDS011;38739;53.324;6.862;2022-09-12T04:47:49;41.42;;;30.33;;
52866;SDS011;38739;53.324;6.862;2022-09-12T04:50:15;41.17;;;29.05;;
52866;SDS011;38739;53.324;6.862;2022-09-12T04:52:41;43.17;;;29.55;;
52866;SDS011;38739;53.324;6.862;2022-09-12T04:55:07;41.97;;;30.75;;
52866;SDS011;38739;53.324;6.862;2022-09-12T04:57:34;42.63;;;30.17;;
52866;SDS011;38739;53.324;6.862;2022-09-12T05:00:00;44.08;;;30.85;;
52866;SDS011;38739;53.324;6.862;2022-09-12T05:02:31;41.92;;;30.42;;
52866;SDS011;38739;53.324;6.862;2022-09-12T05:04:57;42.40;;;30.35;;
52866;SDS011;38739;53.324;6.862;2022-09-12T05:07:23;47.97;;;33.40;;
52866;SDS011;38739;53.324;6.862;2022-09-12T05:09:49;45.53;;;32.22;;
52866;SDS011;38739;53.324;6.862;2022-09-12T05:12:15;46.22;;;32.80;;
52866;SDS011;38739;53.324;6.862;2022-09-12T05:14:40;45.13;;;32.97;;
52866;SDS011;38739;53.324;6.862;2022-09-12T05:17:06;42.38;;;32.03;;
52866;SDS011;38739;53.324;6.862;2022-09-12T05:19:32;50.22;;;33.88;;
52866;SDS011;38739;53.324;6.862;2022-09-12T05:21:58;47.60;;;32.53;;
52866;SDS011;38739;53.324;6.862;2022-09-12T05:24:24;48.25;;;33.13;;
52866;SDS011;38739;53.324;6.862;2022-09-12T05:26:50;51.47;;;34.28;;
52866;SDS011;38739;53.324;6.862;2022-09-12T05:29:16;48.20;;;33.65;;
52866;SDS011;38739;53.324;6.862;2022-09-12T05:31:41;44.78;;;32.50;;
52866;SDS011;38739;53.324;6.862;2022-09-12T05:34:10;47.53;;;32.67;;
52866;SDS011;38739;53.324;6.862;2022-09-12T05:36:36;48.20;;;33.15;;
52866;SDS011;38739;53.324;6.862;2022-09-12T05:39:02;46.83;;;33.47;;
52866;SDS011;38739;53.324;6.862;2022-09-12T05:41:29;46.83;;;32.15;;
52866;SDS011;38739;53.324;6.862;2022-09-12T05:44:01;47.97;;;32.60;;
52866;SDS011;38739;53.324;6.862;2022-09-12T05:46:30;50.08;;;33.40;;
52866;SDS011;38739;53.324;6.862;2022-09-12T05:49:01;48.13;;;33.10;;
52866;SDS011;38739;53.324;6.862;2022-09-12T05:51:30;46.42;;;33.13;;
52866;SDS011;38739;53.324;6.862;2022-09-12T05:53:58;49.92;;;33.28;;
52866;SDS011;38739;53.324;6.862;2022-09-12T05:56:29;46.75;;;32.85;;
52866;SDS011;38739;53.324;6.862;2022-09-12T05:59:00;49.58;;;33.63;;
52866;SDS011;38739;53.324;6.862;2022-09-12T06:01:27;46.20;;;32.42;;
52866;SDS011;38739;53.324;6.862;2022-09-12T06:03:55;45.05;;;32.30;;
52866;SDS011;38739;53.324;6.862;2022-09-12T06:06:23;48.63;;;34.85;;
52866;SDS011;38739;53.324;6.862;2022-09-12T06:08:50;43.97;;;31.63;;
52866;SDS011;38739;53.324;6.862;2022-09-12T06:11:19;46.22;;;32.17;;
52866;SDS011;38739;53.324;6.862;2022-09-12T06:13:47;49.63;;;32.85;;
52866;SDS011;38739;53.324;6.862;2022-09-12T06:16:15;49.30;;;32.85;;
52866;SDS011;38739;53.324;6.862;2022-09-12T06:18:46;44.67;;;32.42;;
52866;SDS011;38739;53.324;6.862;2022-09-12T06:21:13;47.55;;;33.08;;
52866;SDS011;38739;53.324;6.862;2022-09-12T06:23:40;49.95;;;32.72;;
52866;SDS011;38739;53.324;6.862;2022-09-12T06:26:07;46.17;;;32.28;;
52866;SDS011;38739;53.324;6.862;2022-09-12T06:28:35;45.97;;;32.25;;
52866;SDS011;38739;53.324;6.862;2022-09-12T06:31:04;46.67;;;31.73;;
52866;SDS011;38739;53.324;6.862;2022-09-12T06:33:34;44.90;;;32.63;;
52866;SDS011;38739;53.324;6.862;2022-09-12T06:36:05;46.67;;;31.73;;
52866;SDS011;38739;53.324;6.862;2022-09-12T06:38:36;45.35;;;32.78;;
52866;SDS011;38739;53.324;6.862;2022-09-12T06:41:06;45.30;;;31.48;;
52866;SDS011;38739;53.324;6.862;2022-09-12T06:43:33;45.00;;;31.13;;
52866;SDS011;38739;53.324;6.862;2022-09-12T06:45:59;45.13;;;32.50;;
52866;SDS011;38739;53.324;6.862;2022-09-12T06:48:26;44.38;;;31.38;;
52866;SDS011;38739;53.324;6.862;2022-09-12T06:50:56;41.78;;;30.13;;
52866;SDS011;38739;53.324;6.862;2022-09-12T06:53:23;42.90;;;31.73;;
52866;SDS011;38739;53.324;6.862;2022-09-12T06:55:59;43.03;;;31.10;;
52866;SDS011;38739;53.324;6.862;2022-09-12T06:58:27;44.70;;;30.95;;
52866;SDS011;38739;53.324;6.862;2022-09-12T07:03:34;44.70;;;32.40;;
52866;SDS011;38739;53.324;6.862;2022-09-12T07:06:06;48.40;;;33.58;;
52866;SDS011;38739;53.324;6.862;2022-09-12T07:08:33;49.08;;;31.67;;
52866;SDS011;38739;53.324;6.862;2022-09-12T07:11:34;48.03;;;32.35;;
52866;SDS011;38739;53.324;6.862;2022-09-12T07:14:03;47.03;;;33.33;;
52866;SDS011;38739;53.324;6.862;2022-09-12T07:16:30;46.72;;;32.67;;
52866;SDS011;38739;53.324;6.862;2022-09-12T07:18:57;48.20;;;33.28;;
52866;SDS011;38739;53.324;6.862;2022-09-12T07:21:24;49.70;;;33.58;;
52866;SDS011;38739;53.324;6.862;2022-09-12T07:23:50;49.20;;;33.47;;
52866;SDS011;38739;53.324;6.862;2022-09-12T07:26:16;50.40;;;33.78;;
52866;SDS011;38739;53.324;6.862;2022-09-12T07:28:42;52.20;;;34.13;;
52866;SDS011;38739;53.324;6.862;2022-09-12T07:31:13;49.97;;;34.25;;
52866;SDS011;38739;53.324;6.862;2022-09-12T07:33:42;50.72;;;34.13;;
52866;SDS011;38739;53.324;6.862;2022-09-12T07:36:10;53.80;;;35.75;;
52866;SDS011;38739;53.324;6.862;2022-09-12T07:38:37;48.70;;;32.92;;
52866;SDS011;38739;53.324;6.862;2022-09-12T07:41:13;51.08;;;34.17;;
52866;SDS011;38739;53.324;6.862;2022-09-12T07:43:42;47.85;;;33.65;;
52866;SDS011;38739;53.324;6.862;2022-09-12T07:46:08;51.50;;;34.30;;
52866;SDS011;38739;53.324;6.862;2022-09-12T07:48:34;48.35;;;33.50;;
52866;SDS011;38739;53.324;6.862;2022-09-12T07:51:01;47.53;;;33.20;;
52866;SDS011;38739;53.324;6.862;2022-09-12T07:53:33;56.42;;;35.03;;
52866;SDS011;38739;53.324;6.862;2022-09-12T07:56:03;47.15;;;32.78;;
52866;SDS011;38739;53.324;6.862;2022-09-12T07:58:31;51.60;;;34.25;;
52866;SDS011;38739;53.324;6.862;2022-09-12T08:01:17;50.47;;;33.72;;
52866;SDS011;38739;53.324;6.862;2022-09-12T08:03:46;50.28;;;33.75;;
52866;SDS011;38739;53.324;6.862;2022-09-12T08:06:17;48.47;;;33.33;;
52866;SDS011;38739;53.324;6.862;2022-09-12T08:08:50;51.40;;;34.33;;
52866;SDS011;38739;53.324;6.862;2022-09-12T08:11:18;51.22;;;35.10;;
52866;SDS011;38739;53.324;6.862;2022-09-12T08:13:46;48.95;;;33.47;;
52866;SDS011;38739;53.324;6.862;2022-09-12T08:16:13;50.13;;;33.58;;
52866;SDS011;38739;53.324;6.862;2022-09-12T08:18:44;49.78;;;33.63;;
52866;SDS011;38739;53.324;6.862;2022-09-12T08:21:13;49.60;;;33.10;;
52866;SDS011;38739;53.324;6.862;2022-09-12T08:23:44;51.10;;;34.65;;
52866;SDS011;38739;53.324;6.862;2022-09-12T08:26:11;46.63;;;31.23;;
52866;SDS011;38739;53.324;6.862;2022-09-12T08:28:37;49.40;;;32.65;;
52866;SDS011;38739;53.324;6.862;2022-09-12T08:31:07;49.70;;;33.53;;
52866;SDS011;38739;53.324;6.862;2022-09-12T08:33:35;48.47;;;33.00;;
52866;SDS011;38739;53.324;6.862;2022-09-12T08:36:11;49.65;;;32.35;;
52866;SDS011;38739;53.324;6.862;2022-09-12T08:38:37;47.22;;;33.22;;
52866;SDS011;38739;53.324;6.862;2022-09-12T08:46:28;46.90;;;32.78;;
52866;SDS011;38739;53.324;6.862;2022-09-12T08:51:30;44.28;;;30.77;;
52866;SDS011;38739;53.324;6.862;2022-09-12T08:53:58;40.58;;;29.10;;
52866;SDS011;38739;53.324;6.862;2022-09-12T08:56:26;41.30;;;29.30;;
52866;SDS011;38739;53.324;6.862;2022-09-12T08:58:55;35.67;;;27.15;;
52866;SDS011;38739;53.324;6.862;2022-09-12T09:01:29;36.78;;;25.58;;
52866;SDS011;38739;53.324;6.862;2022-09-12T09:15:06;29.00;;;20.52;;
52866;SDS011;38739;53.324;6.862;2022-09-12T09:17:41;29.88;;;20.70;;
52866;SDS011;38739;53.324;6.862;2022-09-12T09:20:29;26.73;;;18.95;;
52866;SDS011;38739;53.324;6.862;2022-09-12T09:25:57;28.45;;;19.23;;
52866;SDS011;38739;53.324;6.862;2022-09-12T09:28:48;28.23;;;19.23;;
52866;SDS011;38739;53.324;6.862;2022-09-12T09:31:17;26.63;;;19.05;;
52866;SDS011;38739;53.324;6.862;2022-09-12T09:33:48;26.83;;;18.05;;
52866;SDS011;38739;53.324;6.862;2022-09-12T09:36:21;26.17;;;18.48;;
52866;SDS011;38739;53.324;6.862;2022-09-12T09:38:51;28.02;;;18.20;;
52866;SDS011;38739;53.324;6.862;2022-09-12T09:44:11;23.17;;;17.65;;
52866;SDS011;38739;53.324;6.862;2022-09-12T09:46:37;22.58;;;16.00;;
52866;SDS011;38739;53.324;6.862;2022-09-12T09:49:03;23.20;;;17.00;;
52866;SDS011;38739;53.324;6.862;2022-09-12T09:51:38;21.77;;;15.98;;
52866;SDS011;38739;53.324;6.862;2022-09-12T09:56:41;21.70;;;14.85;;
52866;SDS011;38739;53.324;6.862;2022-09-12T10:01:59;21.80;;;15.93;;
52866;SDS011;38739;53.324;6.862;2022-09-12T10:04:55;22.70;;;16.17;;
52866;SDS011;38739;53.324;6.862;2022-09-12T10:07:23;21.63;;;15.57;;
52866;SDS011;38739;53.324;6.862;2022-09-12T10:12:34;22.23;;;16.58;;
52866;SDS011;38739;53.324;6.862;2022-09-12T10:15:02;25.23;;;16.60;;
52866;SDS011;38739;53.324;6.862;2022-09-12T10:17:43;23.02;;;17.80;;
52866;SDS011;38739;53.324;6.862;2022-09-12T10:22:55;26.55;;;19.95;;
52866;SDS011;38739;53.324;6.862;2022-09-12T10:25:24;27.50;;;19.92;;
52866;SDS011;38739;53.324;6.862;2022-09-12T10:27:57;27.60;;;19.30;;
52866;SDS011;38739;53.324;6.862;2022-09-12T10:30:24;25.92;;;18.70;;
52866;SDS011;38739;53.324;6.862;2022-09-12T10:32:53;28.70;;;20.17;;
52866;SDS011;38739;53.324;6.862;2022-09-12T10:35:27;26.13;;;18.83;;
52866;SDS011;38739;53.324;6.862;2022-09-12T10:38:05;26.77;;;19.85;;
52866;SDS011;38739;53.324;6.862;2022-09-12T10:40:38;29.88;;;21.25;;
52866;SDS011;38739;53.324;6.862;2022-09-12T10:43:17;31.95;;;22.05;;
52866;SDS011;38739;53.324;6.862;2022-09-12T10:45:49;29.90;;;20.38;;
52866;SDS011;38739;53.324;6.862;2022-09-12T10:50:56;26.80;;;19.57;;
52866;SDS011;38739;53.324;6.862;2022-09-12T11:03:51;26.45;;;18.52;;
52866;SDS011;38739;53.324;6.862;2022-09-12T11:09:22;23.17;;;16.38;;
52866;SDS011;38739;53.324;6.862;2022-09-12T11:17:30;23.88;;;15.65;;
52866;SDS011;38739;53.324;6.862;2022-09-12T11:25:59;20.98;;;14.88;;
52866;SDS011;38739;53.324;6.862;2022-09-12T11:28:46;21.05;;;14.27;;
52866;SDS011;38739;53.324;6.862;2022-09-12T11:34:30;21.35;;;14.40;;
52866;SDS011;38739;53.324;6.862;2022-09-12T11:37:39;20.80;;;13.60;;
52866;SDS011;38739;53.324;6.862;2022-09-12T11:43:22;15.68;;;10.70;;
52866;SDS011;38739;53.324;6.862;2022-09-12T11:46:16;14.88;;;10.27;;
52866;SDS011;38739;53.324;6.862;2022-09-12T11:51:34;19.75;;;11.82;;
52866;SDS011;38739;53.324;6.862;2022-09-12T11:57:13;14.95;;;11.38;;
52866;SDS011;38739;53.324;6.862;2022-09-12T12:00:05;17.65;;;10.93;;
52866;SDS011;38739;53.324;6.862;2022-09-12T12:07:59;15.23;;;10.20;;
52866;SDS011;38739;53.324;6.862;2022-09-12T12:10:31;14.00;;;9.10;;
52866;SDS011;38739;53.324;6.862;2022-09-12T12:15:39;12.88;;;9.13;;
52866;SDS011;38739;53.324;6.862;2022-09-12T12:18:22;14.00;;;9.25;;
52866;SDS011;38739;53.324;6.862;2022-09-12T12:20:50;15.10;;;11.13;;
52866;SDS011;38739;53.324;6.862;2022-09-12T12:23:31;12.93;;;9.05;;
52866;SDS011;38739;53.324;6.862;2022-09-12T12:26:00;13.10;;;9.45;;
52866;SDS011;38739;53.324;6.862;2022-09-12T12:31:05;13.23;;;9.45;;
52866;SDS011;38739;53.324;6.862;2022-09-12T12:36:01;14.10;;;9.70;;
52866;SDS011;38739;53.324;6.862;2022-09-12T12:41:47;11.60;;;8.73;;
52866;SDS011;38739;53.324;6.862;2022-09-12T12:43:51;12.27;;;7.85;;
52866;SDS011;38739;53.324;6.862;2022-09-12T12:46:24;14.05;;;9.55;;
52866;SDS011;38739;53.324;6.862;2022-09-12T12:49:03;12.75;;;9.13;;
52866;SDS011;38739;53.324;6.862;2022-09-12T12:51:55;11.52;;;8.30;;
52866;SDS011;38739;53.324;6.862;2022-09-12T12:54:26;12.18;;;9.07;;
52866;SDS011;38739;53.324;6.862;2022-09-12T12:59:30;9.32;;;7.38;;
52866;SDS011;38739;53.324;6.862;2022-09-12T13:01:56;14.45;;;7.50;;
52866;SDS011;38739;53.324;6.862;2022-09-12T13:04:25;8.70;;;6.40;;
52866;SDS011;38739;53.324;6.862;2022-09-12T13:07:04;8.52;;;6.22;;
52866;SDS011;38739;53.324;6.862;2022-09-12T13:09:43;11.13;;;7.15;;
52866;SDS011;38739;53.324;6.862;2022-09-12T13:12:18;8.27;;;6.30;;
52866;SDS011;38739;53.324;6.862;2022-09-12T13:14:53;7.95;;;5.90;;
52866;SDS011;38739;53.324;6.862;2022-09-12T13:19:50;9.60;;;7.30;;
52866;SDS011;38739;53.324;6.862;2022-09-12T13:22:21;11.73;;;6.75;;
52866;SDS011;38739;53.324;6.862;2022-09-12T13:24:51;11.20;;;7.05;;
52866;SDS011;38739;53.324;6.862;2022-09-12T13:27:21;9.48;;;6.95;;
52866;SDS011;38739;53.324;6.862;2022-09-12T13:29:49;11.05;;;7.22;;
52866;SDS011;38739;53.324;6.862;2022-09-12T13:32:47;7.65;;;6.72;;
52866;SDS011;38739;53.324;6.862;2022-09-12T13:35:26;8.88;;;5.90;;
52866;SDS011;38739;53.324;6.862;2022-09-12T13:43:45;7.38;;;5.88;;
52866;SDS011;38739;53.324;6.862;2022-09-12T13:46:13;9.23;;;6.22;;
52866;SDS011;38739;53.324;6.862;2022-09-12T13:48:42;8.80;;;6.20;;
52866;SDS011;38739;53.324;6.862;2022-09-12T13:51:14;8.40;;;6.18;;
52866;SDS011;38739;53.324;6.862;2022-09-12T13:53:49;9.55;;;6.20;;
52866;SDS011;38739;53.324;6.862;2022-09-12T13:56:17;8.43;;;6.53;;
52866;SDS011;38739;53.324;6.862;2022-09-12T13:58:51;8.63;;;6.50;;
52866;SDS011;38739;53.324;6.862;2022-09-12T14:01:20;10.13;;;7.40;;
52866;SDS011;38739;53.324;6.862;2022-09-12T14:03:48;10.40;;;8.23;;
52866;SDS011;38739;53.324;6.862;2022-09-12T14:06:41;10.07;;;7.78;;
52866;SDS011;38739;53.324;6.862;2022-09-12T14:12:00;8.70;;;6.15;;
52866;SDS011;38739;53.324;6.862;2022-09-12T14:14:33;7.53;;;5.53;;
52866;SDS011;38739;53.324;6.862;2022-09-12T14:17:14;8.18;;;5.38;;
52866;SDS011;38739;53.324;6.862;2022-09-12T14:19:41;6.60;;;5.90;;
52866;SDS011;38739;53.324;6.862;2022-09-12T14:22:08;8.60;;;5.60;;
52866;SDS011;38739;53.324;6.862;2022-09-12T14:24:43;6.05;;;4.75;;
52866;SDS011;38739;53.324;6.862;2022-09-12T14:27:16;6.63;;;5.03;;
52866;SDS011;38739;53.324;6.862;2022-09-12T14:29:44;8.75;;;6.13;;
52866;SDS011;38739;53.324;6.862;2022-09-12T14:32:18;7.63;;;5.70;;
52866;SDS011;38739;53.324;6.862;2022-09-12T14:35:16;9.95;;;6.63;;
52866;SDS011;38739;53.324;6.862;2022-09-12T14:37:44;8.80;;;5.60;;
52866;SDS011;38739;53.324;6.862;2022-09-12T14:40:14;8.13;;;6.18;;
52866;SDS011;38739;53.324;6.862;2022-09-12T14:42:42;8.82;;;7.93;;
52866;SDS011;38739;53.324;6.862;2022-09-12T14:45:28;10.68;;;7.95;;
52866;SDS011;38739;53.324;6.862;2022-09-12T14:47:55;10.27;;;6.88;;
52866;SDS011;38739;53.324;6.862;2022-09-12T14:50:26;9.13;;;6.93;;
52866;SDS011;38739;53.324;6.862;2022-09-12T14:53:02;8.98;;;6.63;;
52866;SDS011;38739;53.324;6.862;2022-09-12T14:55:31;7.88;;;6.22;;
52866;SDS011;38739;53.324;6.862;2022-09-12T14:58:15;9.18;;;6.05;;
52866;SDS011;38739;53.324;6.862;2022-09-12T15:01:20;8.43;;;6.00;;
52866;SDS011;38739;53.324;6.862;2022-09-12T15:03:50;6.68;;;4.70;;
52866;SDS011;38739;53.324;6.862;2022-09-12T15:06:28;7.82;;;5.50;;
52866;SDS011;38739;53.324;6.862;2022-09-12T15:08:59;7.05;;;6.03;;
52866;SDS011;38739;53.324;6.862;2022-09-12T15:11:29;7.47;;;5.63;;
52866;SDS011;38739;53.324;6.862;2022-09-12T15:13:55;9.10;;;6.10;;
52866;SDS011;38739;53.324;6.862;2022-09-12T15:16:20;8.25;;;5.20;;
52866;SDS011;38739;53.324;6.862;2022-09-12T15:18:46;7.60;;;5.88;;
52866;SDS011;38739;53.324;6.862;2022-09-12T15:21:12;7.57;;;5.97;;
52866;SDS011;38739;53.324;6.862;2022-09-12T15:23:43;7.32;;;6.03;;
52866;SDS011;38739;53.324;6.862;2022-09-12T15:26:15;8.73;;;5.90;;
52866;SDS011;38739;53.324;6.862;2022-09-12T15:28:42;9.27;;;5.68;;
52866;SDS011;38739;53.324;6.862;2022-09-12T15:31:14;8.15;;;5.60;;
52866;SDS011;38739;53.324;6.862;2022-09-12T15:33:44;8.13;;;5.07;;
52866;SDS011;38739;53.324;6.862;2022-09-12T15:36:14;5.93;;;4.72;;
52866;SDS011;38739;53.324;6.862;2022-09-12T15:41:12;5.90;;;4.00;;
52866;SDS011;38739;53.324;6.862;2022-09-12T15:43:44;5.93;;;4.00;;
52866;SDS011;38739;53.324;6.862;2022-09-12T15:46:11;6.50;;;4.13;;
52866;SDS011;38739;53.324;6.862;2022-09-12T15:48:38;6.40;;;4.22;;
52866;SDS011;38739;53.324;6.862;2022-09-12T15:51:09;5.72;;;4.10;;
52866;SDS011;38739;53.324;6.862;2022-09-12T15:53:39;4.18;;;3.67;;
52866;SDS011;38739;53.324;6.862;2022-09-12T15:56:05;6.00;;;4.20;;
52866;SDS011;38739;53.324;6.862;2022-09-12T15:58:34;5.28;;;3.95;;
52866;SDS011;38739;53.324;6.862;2022-09-12T16:01:00;5.18;;;4.07;;
52866;SDS011;38739;53.324;6.862;2022-09-12T16:03:27;4.45;;;3.70;;
52866;SDS011;38739;53.324;6.862;2022-09-12T16:06:00;8.40;;;4.43;;
52866;SDS011;38739;53.324;6.862;2022-09-12T16:08:28;5.15;;;4.15;;
52866;SDS011;38739;53.324;6.862;2022-09-12T16:10:59;8.15;;;4.40;;
52866;SDS011;38739;53.324;6.862;2022-09-12T16:13:31;7.13;;;4.05;;
52866;SDS011;38739;53.324;6.862;2022-09-12T16:15:58;5.10;;;4.32;;
52866;SDS011;38739;53.324;6.862;2022-09-12T16:18:25;5.93;;;4.72;;
52866;SDS011;38739;53.324;6.862;2022-09-12T16:20:55;6.22;;;4.88;;
52866;SDS011;38739;53.324;6.862;2022-09-12T16:23:22;8.20;;;4.75;;
52866;SDS011;38739;53.324;6.862;2022-09-12T16:26:01;6.60;;;5.00;;
52866;SDS011;38739;53.324;6.862;2022-09-12T16:28:28;5.90;;;5.20;;
52866;SDS011;38739;53.324;6.862;2022-09-12T16:30:57;9.65;;;5.00;;
52866;SDS011;38739;53.324;6.862;2022-09-12T16:33:27;11.03;;;5.67;;
52866;SDS011;38739;53.324;6.862;2022-09-12T16:36:07;7.50;;;5.18;;
52866;SDS011;38739;53.324;6.862;2022-09-12T16:38:39;6.90;;;5.07;;
52866;SDS011;38739;53.324;6.862;2022-09-12T16:41:05;10.50;;;5.50;;
52866;SDS011;38739;53.324;6.862;2022-09-12T16:43:32;6.05;;;5.05;;
52866;SDS011;38739;53.324;6.862;2022-09-12T16:46:09;7.40;;;5.10;;
52866;SDS011;38739;53.324;6.862;2022-09-12T16:48:36;6.22;;;5.18;;
52866;SDS011;38739;53.324;6.862;2022-09-12T16:51:06;6.72;;;5.18;;
52866;SDS011;38739;53.324;6.862;2022-09-12T16:53:32;8.77;;;5.25;;
52866;SDS011;38739;53.324;6.862;2022-09-12T16:55:59;6.43;;;5.68;;
52866;SDS011;38739;53.324;6.862;2022-09-12T16:58:25;7.10;;;5.25;;
52866;SDS011;38739;53.324;6.862;2022-09-12T17:01:25;6.88;;;4.70;;
52866;SDS011;38739;53.324;6.862;2022-09-12T17:03:45;6.07;;;4.70;;
52866;SDS011;38739;53.324;6.862;2022-09-12T17:06:15;6.57;;;4.35;;
52866;SDS011;38739;53.324;6.862;2022-09-12T17:08:46;5.70;;;4.30;;
52866;SDS011;38739;53.324;6.862;2022-09-12T17:11:14;4.80;;;4.38;;
52866;SDS011;38739;53.324;6.862;2022-09-12T17:13:49;4.90;;;3.95;;
52866;SDS011;38739;53.324;6.862;2022-09-12T17:16:17;5.03;;;4.20;;
52866;SDS011;38739;53.324;6.862;2022-09-12T17:18:43;6.00;;;4.45;;
52866;SDS011;38739;53.324;6.862;2022-09-12T17:21:09;5.43;;;3.80;;
52866;SDS011;38739;53.324;6.862;2022-09-12T17:23:36;5.38;;;4.05;;
52866;SDS011;38739;53.324;6.862;2022-09-12T17:26:02;5.47;;;4.03;;
52866;SDS011;38739;53.324;6.862;2022-09-12T17:28:28;4.30;;;3.75;;
52866;SDS011;38739;53.324;6.862;2022-09-12T17:30:59;6.22;;;3.85;;